createdAt,value
2019-05-17T00:01:47.859Z,34.07
2019-05-17T00:04:22.491Z,35.47
2019-05-17T00:06:57.060Z,39.43
2019-05-17T00:09:30.900Z,41.00
2019-05-17T00:12:07.282Z,39.87
2019-05-17T00:14:40.205Z,47.97
2019-05-17T00:17:13.779Z,57.17
2019-05-17T00:19:47.485Z,54.90
2019-05-17T00:22:21.100Z,73.50
2019-05-17T00:24:56.675Z,127.73
2019-05-17T00:27:30.009Z,179.33
2019-05-17T00:30:06.594Z,177.73
2019-05-17T00:32:40.133Z,82.63
2019-05-17T00:35:14.115Z,57.27
2019-05-17T00:37:47.777Z,47.40
2019-05-17T00:40:22.056Z,38.17
2019-05-17T00:46:32.695Z,34.50
2019-05-17T00:49:06.629Z,32.97
2019-05-17T00:51:40.447Z,20.77
2019-05-17T00:54:14.119Z,30.37
2019-05-17T00:56:47.815Z,41.70
2019-05-17T01:03:07.633Z,74.13
2019-05-17T01:05:41.225Z,147.97
2019-05-17T01:08:17.293Z,75.30
2019-05-17T01:10:50.791Z,99.70
2019-05-17T01:13:26.564Z,76.30
2019-05-17T01:15:59.874Z,117.47
2019-05-17T01:18:33.564Z,196.70
2019-05-17T01:21:07.835Z,233.23
2019-05-17T01:23:41.443Z,125.10
2019-05-17T01:26:15.417Z,387.80
2019-05-17T01:28:49.011Z,364.87
2019-05-17T01:31:23.054Z,186.80
2019-05-17T01:33:56.687Z,185.70
2019-05-17T01:36:30.348Z,191.50
2019-05-17T01:39:15.182Z,317.90
2019-05-17T01:41:39.489Z,559.73
2019-05-17T01:44:13.095Z,227.93
2019-05-17T01:46:46.799Z,400.87
2019-05-17T01:49:20.541Z,385.37
2019-05-17T01:51:56.656Z,368.07
2019-05-17T01:54:29.587Z,339.43
2019-05-17T01:57:03.395Z,316.07
2019-05-17T01:59:37.375Z,438.47
2019-05-17T02:02:29.089Z,164.07
2019-05-17T02:05:03.072Z,119.60
2019-05-17T02:07:37.371Z,356.47
2019-05-17T02:10:12.956Z,187.17
2019-05-17T02:12:49.110Z,311.63
2019-05-17T02:15:22.591Z,343.07
2019-05-17T02:17:57.379Z,149.93
2019-05-17T02:20:31.164Z,250.70
2019-05-17T02:23:07.017Z,234.17
2019-05-17T02:25:40.169Z,381.00
2019-05-17T02:32:03.521Z,248.40
2019-05-17T02:34:35.166Z,571.23
2019-05-17T02:37:08.780Z,447.93
2019-05-17T02:39:53.825Z,363.03
2019-05-17T02:42:17.820Z,302.27
2019-05-17T02:48:37.618Z,339.60
2019-05-17T02:51:13.046Z,262.97
2019-05-17T02:53:46.635Z,389.10
2019-05-17T02:56:22.842Z,318.70
2019-05-17T02:58:55.557Z,321.70
2019-05-17T03:01:32.823Z,524.23
2019-05-17T03:04:05.267Z,510.60
2019-05-17T03:06:38.973Z,573.00
2019-05-17T03:09:12.666Z,468.27
2019-05-17T03:11:46.343Z,631.53
2019-05-17T03:14:22.786Z,583.40
2019-05-17T03:16:55.217Z,560.50
2019-05-17T03:19:32.541Z,534.17
2019-05-17T03:22:07.761Z,560.73
2019-05-17T03:24:39.942Z,491.07
2019-05-17T03:27:13.822Z,374.10
2019-05-17T03:29:47.787Z,261.10
2019-05-17T03:32:26.353Z,185.20
2019-05-17T03:34:57.251Z,172.03
2019-05-17T03:37:37.292Z,184.67
2019-05-17T03:40:23.297Z,131.77
2019-05-17T03:42:43.003Z,151.70
2019-05-17T03:45:17.170Z,104.07
2019-05-17T03:47:53.211Z,73.47
2019-05-17T03:50:26.138Z,94.90
2019-05-17T03:53:02.375Z,69.13
2019-05-17T03:55:35.309Z,62.50
2019-05-17T03:58:08.969Z,81.80
2019-05-17T04:00:43.001Z,85.03
2019-05-17T04:03:16.769Z,62.03
2019-05-17T04:05:52.858Z,58.50
2019-05-17T04:08:25.806Z,91.33
2019-05-17T04:11:17.614Z,70.13
2019-05-17T04:17:22.752Z,152.67
2019-05-17T04:19:56.851Z,114.00
2019-05-17T04:22:33.108Z,169.23
2019-05-17T04:25:06.638Z,282.57
2019-05-17T04:27:43.654Z,267.62
2019-05-17T04:34:03.091Z,279.50
2019-05-17T04:36:37.001Z,411.57
2019-05-17T04:39:13.315Z,256.17
2019-05-17T04:41:50.363Z,271.97
2019-05-17T04:44:23.082Z,320.57
2019-05-17T04:46:57.129Z,251.53
2019-05-17T04:49:33.041Z,461.80
2019-05-17T04:52:06.418Z,447.07
2019-05-17T04:54:42.465Z,502.63
2019-05-17T04:57:15.457Z,441.20
2019-05-17T04:59:52.352Z,666.73
2019-05-17T05:02:25.422Z,499.43
2019-05-17T05:05:02.894Z,438.63
2019-05-17T05:07:34.650Z,339.83
2019-05-17T05:10:09.540Z,524.43
2019-05-17T05:12:44.498Z,280.77
2019-05-17T05:15:22.534Z,203.63
2019-05-17T05:17:56.373Z,638.97
2019-05-17T05:20:32.431Z,655.90
2019-05-17T05:23:05.524Z,326.33
2019-05-17T05:25:39.125Z,211.43
2019-05-17T05:28:12.854Z,144.37
2019-05-17T05:30:46.514Z,113.20
2019-05-17T05:33:22.169Z,228.40
2019-05-17T05:35:55.373Z,259.33
2019-05-17T05:38:28.970Z,338.10
2019-05-17T05:41:02.742Z,71.53
2019-05-17T05:47:12.906Z,206.23
2019-05-17T05:49:46.499Z,127.50
2019-05-17T05:52:21.884Z,144.17
2019-05-17T05:54:55.594Z,91.43
2019-05-17T05:57:29.256Z,154.83
2019-05-17T06:03:49.400Z,78.13
2019-05-17T06:06:23.038Z,82.67
2019-05-17T06:08:56.872Z,100.17
2019-05-17T06:11:32.225Z,143.67
2019-05-17T06:14:06.203Z,65.93
2019-05-17T06:16:42.548Z,101.07
2019-05-17T06:19:15.820Z,73.17
2019-05-17T06:21:51.849Z,82.90
2019-05-17T06:24:24.744Z,90.27
2019-05-17T06:26:58.416Z,52.67
2019-05-17T06:29:32.778Z,70.10
2019-05-17T06:32:06.784Z,99.57
2019-05-17T06:34:42.248Z,46.63
2019-05-17T06:37:16.687Z,57.50
2019-05-17T06:39:52.508Z,95.77
2019-05-17T06:42:37.229Z,43.37
2019-05-17T06:45:02.205Z,43.20
2019-05-17T06:47:36.056Z,37.17
2019-05-17T06:50:10.098Z,45.67
2019-05-17T06:52:44.180Z,38.23
2019-05-17T06:55:17.937Z,42.53
2019-05-17T06:57:52.802Z,35.80
2019-05-17T07:00:29.793Z,34.03
2019-05-17T07:03:03.128Z,35.57
2019-05-17T07:05:40.401Z,37.33
2019-05-17T07:08:13.780Z,42.60
2019-05-17T07:10:47.419Z,32.43
2019-05-17T07:13:21.017Z,47.30
2019-05-17T07:15:54.706Z,64.47
2019-05-17T07:18:30.002Z,54.23
2019-05-17T07:21:03.843Z,113.87
2019-05-17T07:23:39.523Z,101.00
2019-05-17T07:26:13.098Z,132.00
2019-05-17T07:28:46.844Z,53.77
2019-05-17T07:31:23.105Z,87.97
2019-05-17T07:33:55.866Z,61.90
2019-05-17T07:36:30.653Z,52.10
2019-05-17T07:39:05.594Z,80.20
2019-05-17T07:41:40.131Z,56.10
2019-05-17T07:47:51.487Z,45.87
2019-05-17T07:50:25.259Z,47.23
2019-05-17T07:53:00.611Z,37.20
2019-05-17T07:55:34.351Z,44.83
2019-05-17T07:58:10.055Z,43.40
2019-05-17T08:04:30.462Z,34.77
2019-05-17T08:07:04.231Z,32.43
2019-05-17T08:09:40.272Z,34.43
2019-05-17T08:12:13.478Z,32.20
2019-05-17T08:14:50.293Z,26.87
2019-05-17T08:17:24.111Z,30.10
2019-05-17T08:20:00.312Z,32.23
2019-05-17T08:22:33.134Z,29.27
2019-05-17T08:25:07.148Z,24.40
2019-05-17T08:27:40.859Z,26.40
2019-05-17T08:30:15.029Z,32.30
2019-05-17T08:32:50.450Z,29.23
2019-05-17T08:35:23.932Z,29.47
2019-05-17T08:38:00.340Z,25.00
2019-05-17T08:40:33.364Z,30.23
2019-05-17T08:43:09.727Z,23.80
2019-05-17T08:45:42.364Z,28.50
2019-05-17T08:48:15.996Z,32.83
2019-05-17T08:50:49.700Z,27.37
2019-05-17T08:53:23.512Z,25.70
2019-05-17T08:55:57.175Z,27.77
2019-05-17T08:58:31.165Z,28.83
2019-05-17T09:01:04.895Z,30.03
2019-05-17T09:03:41.033Z,27.20
2019-05-17T09:06:14.802Z,29.05
2019-05-17T09:08:49.960Z,24.27
2019-05-17T09:11:23.699Z,23.50
2019-05-17T09:14:01.122Z,24.13
2019-05-17T09:16:34.108Z,28.30
2019-05-17T09:19:10.078Z,24.10
2019-05-17T09:21:43.804Z,26.97
2019-05-17T09:24:19.485Z,21.20
2019-05-17T09:26:52.868Z,29.33
2019-05-17T09:33:13.176Z,23.63
2019-05-17T09:35:46.829Z,26.43
2019-05-17T09:38:20.528Z,25.03
2019-05-17T09:40:54.131Z,26.97
2019-05-17T09:43:29.536Z,27.30
2019-05-17T09:49:50.144Z,25.90
2019-05-17T09:52:24.175Z,28.83
2019-05-17T09:55:00.436Z,28.40
2019-05-17T09:57:33.530Z,27.77
2019-05-17T10:00:09.909Z,25.80
2019-05-17T10:02:43.828Z,32.70
2019-05-17T10:05:19.969Z,27.40
2019-05-17T10:07:52.787Z,27.90
2019-05-17T10:10:26.464Z,26.10
2019-05-17T10:13:00.307Z,25.37
2019-05-17T10:15:34.357Z,27.97
2019-05-17T10:18:10.766Z,28.00
2019-05-17T10:20:43.409Z,28.37
2019-05-17T10:23:19.510Z,23.50
2019-05-17T10:25:52.459Z,24.53
2019-05-17T10:28:26.361Z,25.50
2019-05-17T10:31:02.425Z,21.77
2019-05-17T10:33:35.398Z,20.23
2019-05-17T10:36:09.954Z,26.23
2019-05-17T10:38:43.896Z,26.70
2019-05-17T10:41:19.725Z,22.13
2019-05-17T10:43:52.850Z,25.53
2019-05-17T10:46:26.507Z,25.90
2019-05-17T10:49:00.156Z,24.40
2019-05-17T10:51:34.105Z,23.33
2019-05-17T10:54:09.566Z,18.70
2019-05-17T10:56:43.351Z,20.07
2019-05-17T10:59:17.090Z,20.40
2019-05-17T11:01:50.857Z,21.50
2019-05-17T11:04:24.873Z,16.93
2019-05-17T11:06:59.672Z,22.73
2019-05-17T11:09:33.408Z,20.80
2019-05-17T11:12:07.218Z,16.93
2019-05-17T11:18:18.406Z,20.90
2019-05-17T11:20:51.990Z,19.63
2019-05-17T11:23:25.682Z,20.03
2019-05-17T11:25:59.326Z,20.27
2019-05-17T11:28:32.911Z,15.67
2019-05-17T11:34:43.915Z,17.07
2019-05-17T11:37:17.496Z,24.60
2019-05-17T11:39:51.119Z,18.10
2019-05-17T11:42:24.829Z,19.43
2019-05-17T11:44:58.504Z,17.80
2019-05-17T11:47:32.212Z,17.27
2019-05-17T11:50:09.034Z,20.40
2019-05-17T11:52:42.679Z,19.40
2019-05-17T11:55:16.407Z,22.40
2019-05-17T11:57:50.025Z,16.47
2019-05-17T12:00:24.126Z,16.43
2019-05-17T12:02:57.851Z,19.03
2019-05-17T12:05:31.783Z,17.80
2019-05-17T12:08:08.532Z,17.23
2019-05-17T12:10:46.906Z,16.30
2019-05-17T12:13:21.639Z,13.07
2019-05-17T12:15:55.220Z,18.33
2019-05-17T12:18:28.866Z,19.87
2019-05-17T12:21:03.890Z,16.80
2019-05-17T12:23:37.641Z,20.67
2019-05-17T12:26:11.538Z,13.67
2019-05-17T12:28:45.190Z,17.13
2019-05-17T12:31:18.784Z,14.63
2019-05-17T12:33:52.381Z,15.60
2019-05-17T12:36:25.997Z,17.80
2019-05-17T12:39:02.612Z,14.53
2019-05-17T12:41:36.194Z,15.57
2019-05-17T12:44:09.865Z,15.90
2019-05-17T12:46:43.461Z,13.50
2019-05-17T12:49:18.067Z,17.93
2019-05-17T12:51:51.656Z,13.60
2019-05-17T12:54:25.670Z,14.20
2019-05-17T12:56:59.253Z,16.33
2019-05-17T12:59:32.954Z,14.97
2019-05-17T13:02:06.629Z,12.20
2019-05-17T13:04:40.340Z,12.93
2019-05-17T13:07:14.010Z,16.20
2019-05-17T13:09:49.311Z,11.40
2019-05-17T13:12:23.130Z,15.67
2019-05-17T13:18:34.366Z,15.43
2019-05-17T13:21:08.012Z,17.30
2019-05-17T13:23:41.714Z,12.67
2019-05-17T13:26:15.332Z,15.00
2019-05-17T13:28:48.966Z,13.03
2019-05-17T13:35:10.344Z,13.17
2019-05-17T13:37:44.088Z,12.43
2019-05-17T13:40:18.274Z,11.20
2019-05-17T13:42:52.631Z,12.50
2019-05-17T13:45:26.318Z,13.00
2019-05-17T13:47:59.922Z,10.17
2019-05-17T13:50:33.590Z,9.30
2019-05-17T13:53:07.360Z,10.40
2019-05-17T13:55:47.025Z,11.63
2019-05-17T13:58:20.739Z,12.27
2019-05-17T14:00:54.336Z,16.23
2019-05-17T14:03:28.120Z,13.70
2019-05-17T14:06:01.731Z,11.57
2019-05-17T14:08:35.359Z,14.23
2019-05-17T14:11:09.123Z,19.60
2019-05-17T14:13:42.779Z,11.93
2019-05-17T14:16:18.840Z,15.57
2019-05-17T14:18:52.505Z,15.93
2019-05-17T14:21:26.128Z,17.00
2019-05-17T14:23:59.781Z,21.20
2019-05-17T14:26:33.499Z,15.43
2019-05-17T14:29:07.170Z,18.03
2019-05-17T14:31:40.841Z,14.50
2019-05-17T14:34:14.430Z,16.60
2019-05-17T14:36:48.054Z,22.10
2019-05-17T14:39:21.718Z,15.27
2019-05-17T14:41:55.355Z,16.80
2019-05-17T14:44:30.852Z,13.93
2019-05-17T14:47:04.548Z,13.90
2019-05-17T14:49:38.160Z,16.27
2019-05-17T14:52:11.849Z,17.67
2019-05-17T14:54:45.462Z,18.33
2019-05-17T14:57:19.051Z,17.67
2019-05-17T14:59:52.895Z,19.83
2019-05-17T15:02:26.621Z,18.10
2019-05-17T15:05:00.451Z,16.73
2019-05-17T15:07:34.027Z,12.30
2019-05-17T15:10:08.112Z,16.47
2019-05-17T15:12:41.774Z,16.47
2019-05-17T15:18:43.051Z,10.90
2019-05-17T15:21:16.779Z,5.47
2019-05-17T15:23:50.398Z,6.57
2019-05-17T15:26:23.993Z,10.57
2019-05-17T15:28:57.626Z,16.83
2019-05-17T15:35:17.432Z,10.23
2019-05-17T15:37:51.031Z,11.30
2019-05-17T15:40:24.715Z,9.80
2019-05-17T15:42:58.305Z,9.50
2019-05-17T15:45:31.994Z,7.90
2019-05-17T15:48:05.659Z,6.97
2019-05-17T15:50:39.381Z,8.30
2019-05-17T15:53:13.034Z,9.30
2019-05-17T15:55:46.699Z,13.80
2019-05-17T15:58:20.308Z,14.17
2019-05-17T16:00:54.034Z,9.57
2019-05-17T16:03:27.742Z,9.30
2019-05-17T16:06:01.364Z,11.37
2019-05-17T16:08:35.048Z,10.20
2019-05-17T16:11:08.828Z,10.50
2019-05-17T16:13:42.762Z,12.23
2019-05-17T16:16:16.359Z,13.60
2019-05-17T16:18:50.101Z,11.80
2019-05-17T16:21:23.768Z,14.80
2019-05-17T16:23:57.519Z,19.50
2019-05-17T16:26:31.108Z,16.10
2019-05-17T16:29:04.741Z,18.70
2019-05-17T16:31:38.733Z,16.50
2019-05-17T16:34:12.366Z,15.43
2019-05-17T16:36:45.980Z,19.03
2019-05-17T16:39:19.626Z,20.00
2019-05-17T16:41:53.220Z,17.63
2019-05-17T16:44:26.914Z,19.93
2019-05-17T16:47:00.550Z,19.67
2019-05-17T16:49:34.273Z,20.37
2019-05-17T16:52:08.049Z,20.33
2019-05-17T16:54:41.647Z,20.73
2019-05-17T16:57:15.308Z,21.20
2019-05-17T16:59:49.940Z,22.97
2019-05-17T17:02:23.665Z,27.73
2019-05-17T17:04:57.317Z,29.93
2019-05-17T17:07:30.986Z,32.00
2019-05-17T17:10:05.933Z,31.20
2019-05-17T17:12:39.723Z,27.23
2019-05-17T17:15:13.627Z,29.43
2019-05-17T17:17:47.276Z,26.13
2019-05-17T17:20:22.647Z,29.13
2019-05-17T17:22:56.365Z,28.87
2019-05-17T17:25:30.055Z,26.53
2019-05-17T17:28:05.968Z,25.87
2019-05-17T17:30:39.148Z,24.50
2019-05-17T17:33:13.491Z,26.67
2019-05-17T17:35:47.088Z,28.97
2019-05-17T17:38:20.766Z,32.93
2019-05-17T17:40:54.589Z,38.73
2019-05-17T17:43:28.359Z,35.93
2019-05-17T17:49:39.341Z,34.40
2019-05-17T17:52:13.008Z,32.67
2019-05-17T17:54:46.861Z,38.00
2019-05-17T17:57:20.570Z,33.97
2019-05-17T17:59:55.733Z,35.63
2019-05-17T18:06:15.567Z,504.97
2019-05-17T18:08:49.282Z,208.30
2019-05-17T18:11:22.962Z,562.23
2019-05-17T18:14:11.117Z,298.87
2019-05-17T18:16:32.980Z,202.07
2019-05-17T18:19:06.882Z,565.80
2019-05-17T18:21:40.604Z,247.80
2019-05-17T18:24:14.206Z,177.80
2019-05-17T18:26:48.319Z,381.53
2019-05-17T18:29:21.997Z,583.37
2019-05-17T18:31:55.774Z,247.97
2019-05-17T18:34:29.381Z,246.73
2019-05-17T18:37:03.035Z,411.07
2019-05-17T18:39:36.655Z,240.40
2019-05-17T18:42:10.436Z,556.03
2019-05-17T18:44:44.176Z,385.37
2019-05-17T18:47:17.820Z,373.03
2019-05-17T18:49:51.473Z,527.67
2019-05-17T18:52:25.128Z,366.40
2019-05-17T18:54:58.739Z,300.33
2019-05-17T18:57:32.403Z,361.03
2019-05-17T19:00:08.607Z,594.53
2019-05-17T19:02:42.296Z,593.37
2019-05-17T19:05:16.641Z,128.63
2019-05-17T19:07:50.253Z,103.57
2019-05-17T19:10:24.144Z,92.07
2019-05-17T19:12:57.828Z,354.73
2019-05-17T19:15:31.537Z,400.03
2019-05-17T19:18:05.273Z,549.43
2019-05-17T19:20:38.997Z,327.90
2019-05-17T19:23:12.667Z,65.73
2019-05-17T19:25:46.306Z,322.87
2019-05-17T19:28:19.943Z,318.17
2019-05-17T19:30:53.556Z,201.33
2019-05-17T19:33:27.218Z,355.63
2019-05-17T19:36:00.886Z,76.03
2019-05-17T19:38:34.618Z,61.23
2019-05-17T19:41:08.326Z,66.67
2019-05-17T19:43:41.975Z,66.37
2019-05-17T19:49:53.335Z,59.23
2019-05-17T19:52:27.009Z,54.40
2019-05-17T19:55:00.768Z,57.13
2019-05-17T19:57:34.412Z,56.17
2019-05-17T20:00:10.437Z,53.30
2019-05-17T20:06:20.851Z,56.63
2019-05-17T20:08:54.456Z,52.07
2019-05-17T20:11:34.446Z,58.33
2019-05-17T20:14:03.707Z,57.33
2019-05-17T20:16:37.407Z,55.73
2019-05-17T20:19:11.043Z,54.17
2019-05-17T20:21:44.745Z,56.50
2019-05-17T20:24:18.355Z,62.20
2019-05-17T20:26:52.022Z,48.00
2019-05-17T20:29:25.656Z,64.13
2019-05-17T20:31:59.341Z,61.23
2019-05-17T20:34:32.923Z,59.40
2019-05-17T20:37:06.629Z,63.80
2019-05-17T20:39:40.430Z,60.77
2019-05-17T20:42:14.068Z,56.10
2019-05-17T20:44:47.663Z,53.93
2019-05-17T20:47:21.384Z,59.70
2019-05-17T20:49:55.085Z,59.00
2019-05-17T20:52:28.774Z,55.17
2019-05-17T20:55:04.072Z,62.83
2019-05-17T20:57:37.722Z,50.73
2019-05-17T21:00:13.385Z,59.60
2019-05-17T21:02:46.971Z,45.03
2019-05-17T21:05:20.589Z,58.50
2019-05-17T21:07:54.323Z,56.07
2019-05-17T21:10:27.933Z,61.90
2019-05-17T21:13:01.556Z,64.23
2019-05-17T21:15:46.965Z,52.27
2019-05-17T21:18:10.692Z,58.93
2019-05-17T21:20:44.348Z,69.43
2019-05-17T21:23:18.093Z,56.00
2019-05-17T21:25:51.725Z,60.90
2019-05-17T21:28:25.404Z,63.43
2019-05-17T21:30:58.991Z,52.30
2019-05-17T21:33:32.670Z,65.07
2019-05-17T21:36:06.602Z,71.97
2019-05-17T21:38:40.396Z,78.87
2019-05-17T21:41:14.034Z,64.77
2019-05-17T21:43:47.724Z,69.93
2019-05-17T21:46:21.343Z,75.10
2019-05-17T21:48:55.044Z,74.63
2019-05-17T21:51:28.686Z,65.97
2019-05-17T21:54:02.351Z,73.37
2019-05-17T21:56:36.016Z,67.57
2019-05-17T21:59:12.621Z,63.80
2019-05-17T22:05:22.218Z,57.93
2019-05-17T22:07:56.085Z,58.63
2019-05-17T22:10:29.796Z,55.70
2019-05-17T22:13:03.509Z,53.63
2019-05-17T22:15:37.175Z,57.10
2019-05-17T22:21:48.589Z,64.53
2019-05-17T22:24:22.184Z,63.77
2019-05-17T22:26:55.821Z,58.53
2019-05-17T22:29:29.423Z,62.77
2019-05-17T22:32:03.171Z,63.93
2019-05-17T22:34:36.799Z,64.13
2019-05-17T22:37:10.517Z,65.07
2019-05-17T22:39:44.133Z,60.30
2019-05-17T22:42:17.739Z,66.07
2019-05-17T22:44:51.339Z,75.03
2019-05-17T22:47:25.015Z,67.00
2019-05-17T22:50:00.152Z,70.60
2019-05-17T22:52:33.704Z,70.57
2019-05-17T22:55:07.630Z,65.83
2019-05-17T22:57:41.389Z,65.07
2019-05-17T23:00:15.715Z,68.10
2019-05-17T23:02:49.634Z,61.80
2019-05-17T23:05:26.195Z,66.77
2019-05-17T23:07:58.682Z,77.50
2019-05-17T23:10:35.099Z,78.23
2019-05-17T23:13:07.825Z,91.63
2019-05-17T23:16:01.144Z,109.03
2019-05-17T23:18:35.152Z,133.53
2019-05-17T23:21:08.761Z,311.43
2019-05-17T23:23:42.398Z,289.30
2019-05-17T23:26:15.996Z,169.53
2019-05-17T23:28:49.638Z,230.67
2019-05-17T23:31:23.310Z,322.93
2019-05-17T23:33:57.054Z,324.63
2019-05-17T23:36:30.649Z,376.87
2019-05-17T23:39:06.440Z,355.27
2019-05-17T23:41:40.095Z,228.23
2019-05-17T23:44:13.737Z,340.30
2019-05-17T23:46:47.381Z,238.97
2019-05-17T23:49:20.965Z,453.90
2019-05-17T23:51:54.554Z,309.03
2019-05-17T23:54:28.186Z,284.90
2019-05-17T23:57:01.863Z,262.20
2019-05-17T23:59:35.467Z,190.73
